createdAt,value
2019-03-24T00:01:41.914Z,102457.68
2019-03-24T00:04:13.995Z,102457.68
2019-03-24T00:06:45.998Z,102445.99
2019-03-24T00:09:18.014Z,102448.45
2019-03-24T00:11:50.063Z,102448.75
2019-03-24T00:14:22.017Z,102453.94
2019-03-24T00:16:57.175Z,102441.09
2019-03-24T00:19:29.092Z,102439.06
2019-03-24T00:22:01.061Z,102439.44
2019-03-24T00:24:33.076Z,102443.13
2019-03-24T00:27:05.152Z,102445.00
2019-03-24T00:29:37.126Z,102437.21
2019-03-24T00:32:09.243Z,102440.33
2019-03-24T00:34:41.295Z,102434.40
2019-03-24T00:37:13.286Z,102431.75
2019-03-24T00:39:45.284Z,102429.13
2019-03-24T00:42:17.318Z,102432.71
2019-03-24T00:44:49.317Z,102432.75
2019-03-24T00:47:21.403Z,102427.34
2019-03-24T00:49:53.414Z,102426.87
2019-03-24T00:52:25.473Z,102423.67
2019-03-24T00:54:57.383Z,102426.61
2019-03-24T00:57:29.442Z,102429.37
2019-03-24T01:00:01.487Z,102429.20
2019-03-24T01:02:33.551Z,102419.13
2019-03-24T01:05:06.136Z,102418.77
2019-03-24T01:07:38.135Z,102428.25
2019-03-24T01:10:10.644Z,102425.93
2019-03-24T01:12:42.778Z,102416.48
2019-03-24T01:15:15.024Z,102428.05
2019-03-24T01:17:47.062Z,102422.48
2019-03-24T01:20:19.962Z,102421.09
2019-03-24T01:22:51.957Z,102419.30
2019-03-24T01:25:24.195Z,102418.50
2019-03-24T01:27:56.147Z,102418.58
2019-03-24T01:30:28.328Z,102421.38
2019-03-24T01:33:00.412Z,102420.05
2019-03-24T01:35:32.435Z,102417.93
2019-03-24T01:38:04.481Z,102420.18
2019-03-24T01:40:36.722Z,102412.36
2019-03-24T01:43:08.802Z,102414.21
2019-03-24T01:45:40.828Z,102412.49
2019-03-24T01:48:13.280Z,102411.25
2019-03-24T01:50:45.188Z,102405.89
2019-03-24T01:53:17.256Z,102411.41
2019-03-24T01:55:49.298Z,102411.34
2019-03-24T01:58:21.361Z,102411.27
2019-03-24T02:00:54.101Z,102406.56
2019-03-24T02:03:26.273Z,102401.63
2019-03-24T02:05:58.367Z,102394.38
2019-03-24T02:08:30.469Z,102392.97
2019-03-24T02:11:02.515Z,102395.31
2019-03-24T02:13:34.596Z,102393.76
2019-03-24T02:16:09.599Z,102389.95
2019-03-24T02:18:40.368Z,102388.45
2019-03-24T02:21:12.434Z,102391.60
2019-03-24T02:23:44.489Z,102386.23
2019-03-24T02:26:16.521Z,102380.52
2019-03-24T02:28:48.462Z,102379.55
2019-03-24T02:31:20.548Z,102381.30
2019-03-24T02:33:52.626Z,102380.16
2019-03-24T02:36:24.684Z,102379.16
2019-03-24T02:38:56.753Z,102378.72
2019-03-24T02:41:28.810Z,102376.29
2019-03-24T02:44:00.790Z,102383.09
2019-03-24T02:46:32.947Z,102372.45
2019-03-24T02:49:04.959Z,102370.72
2019-03-24T02:51:36.984Z,102368.27
2019-03-24T02:54:09.072Z,102363.84
2019-03-24T02:56:41.151Z,102366.20
2019-03-24T02:59:13.255Z,102368.59
2019-03-24T03:01:45.280Z,102363.66
2019-03-24T03:04:17.296Z,102364.06
2019-03-24T03:06:49.382Z,102365.76
2019-03-24T03:09:21.518Z,102366.58
2019-03-24T03:11:53.635Z,102366.31
2019-03-24T03:14:25.756Z,102358.55
2019-03-24T03:16:57.735Z,102353.66
2019-03-24T03:19:29.875Z,102359.70
2019-03-24T03:22:01.942Z,102350.02
2019-03-24T03:24:34.017Z,102354.44
2019-03-24T03:27:06.278Z,102351.98
2019-03-24T03:29:38.327Z,102358.05
2019-03-24T03:32:10.371Z,102353.16
2019-03-24T03:34:42.488Z,102355.45
2019-03-24T03:37:14.548Z,102358.55
2019-03-24T03:39:46.510Z,102342.98
2019-03-24T03:42:18.630Z,102347.91
2019-03-24T03:44:50.632Z,102349.33
2019-03-24T03:47:22.696Z,102348.78
2019-03-24T03:49:54.677Z,102348.41
2019-03-24T03:52:26.712Z,102347.86
2019-03-24T03:54:58.810Z,102342.16
2019-03-24T03:57:30.899Z,102349.05
2019-03-24T04:00:02.957Z,102351.55
2019-03-24T04:02:35.089Z,102342.02
2019-03-24T04:05:08.026Z,102339.73
2019-03-24T04:07:40.099Z,102333.61
2019-03-24T04:10:12.459Z,102344.13
2019-03-24T04:12:44.511Z,102339.67
2019-03-24T04:15:16.555Z,102336.26
2019-03-24T04:17:48.600Z,102329.13
2019-03-24T04:20:20.648Z,102328.28
2019-03-24T04:22:52.734Z,102332.25
2019-03-24T04:25:24.770Z,102323.77
2019-03-24T04:27:56.838Z,102318.06
2019-03-24T04:30:28.889Z,102309.66
2019-03-24T04:33:00.863Z,102309.59
2019-03-24T04:35:32.878Z,102306.56
2019-03-24T04:38:04.966Z,102302.69
2019-03-24T04:40:36.998Z,102311.48
2019-03-24T04:43:08.986Z,102310.45
2019-03-24T04:45:41.099Z,102317.41
2019-03-24T04:48:13.154Z,102324.39
2019-03-24T04:50:45.160Z,102335.47
2019-03-24T04:53:17.207Z,102333.91
2019-03-24T04:55:49.264Z,102332.34
2019-03-24T04:58:21.301Z,102321.07
2019-03-24T05:00:53.292Z,102321.36
2019-03-24T05:03:25.395Z,102329.81
2019-03-24T05:05:57.889Z,102319.55
2019-03-24T05:08:31.281Z,102321.03
2019-03-24T05:11:03.304Z,102315.09
2019-03-24T05:13:35.412Z,102315.64
2019-03-24T05:16:07.444Z,102314.47
2019-03-24T05:18:39.612Z,102319.00
2019-03-24T05:21:11.606Z,102319.80
2019-03-24T05:23:45.953Z,102326.80
2019-03-24T05:26:17.379Z,102324.89
2019-03-24T05:28:49.453Z,102320.58
2019-03-24T05:31:21.475Z,102319.41
2019-03-24T05:33:53.511Z,102322.55
2019-03-24T05:36:25.520Z,102321.73
2019-03-24T05:38:57.716Z,102321.73
2019-03-24T05:41:29.759Z,102318.23
2019-03-24T05:44:01.803Z,102319.38
2019-03-24T05:46:33.883Z,102319.92
2019-03-24T05:49:05.867Z,102317.11
2019-03-24T05:51:37.883Z,102323.92
2019-03-24T05:54:09.816Z,102325.23
2019-03-24T05:56:41.909Z,102324.46
2019-03-24T05:59:13.895Z,102319.05
2019-03-24T06:01:46.016Z,102321.77
2019-03-24T06:04:18.087Z,102304.16
2019-03-24T06:06:50.144Z,102316.50
2019-03-24T06:09:22.209Z,102305.11
2019-03-24T06:11:54.299Z,102311.75
2019-03-24T06:14:26.350Z,102311.84
2019-03-24T06:16:58.377Z,102306.44
2019-03-24T06:19:30.864Z,102302.89
2019-03-24T06:22:02.899Z,102301.03
2019-03-24T06:24:34.870Z,102299.25
2019-03-24T06:27:06.923Z,102286.80
2019-03-24T06:29:38.922Z,102282.67
2019-03-24T06:32:10.873Z,102284.28
2019-03-24T06:34:42.962Z,102284.83
2019-03-24T06:37:14.981Z,102284.05
2019-03-24T06:39:47.046Z,102281.52
2019-03-24T06:42:19.092Z,102285.59
2019-03-24T06:44:51.049Z,102287.86
2019-03-24T06:47:23.141Z,102293.55
2019-03-24T06:49:55.206Z,102280.34
2019-03-24T06:52:27.302Z,102277.61
2019-03-24T06:54:59.354Z,102271.46
2019-03-24T06:57:32.438Z,102276.75
2019-03-24T07:00:04.536Z,102263.75
2019-03-24T07:02:36.639Z,102264.28
2019-03-24T07:05:12.196Z,102269.97
2019-03-24T07:07:44.354Z,102257.29
2019-03-24T07:10:16.503Z,102258.58
2019-03-24T07:12:48.618Z,102254.02
2019-03-24T07:15:20.682Z,102248.52
2019-03-24T07:17:52.762Z,102248.58
2019-03-24T07:20:24.848Z,102247.89
2019-03-24T07:22:56.914Z,102243.73
2019-03-24T07:25:28.948Z,102246.57
2019-03-24T07:28:01.031Z,102242.20
2019-03-24T07:30:33.206Z,102243.31
2019-03-24T07:33:15.255Z,102230.83
2019-03-24T07:35:47.393Z,102232.55
2019-03-24T07:38:19.511Z,102227.09
2019-03-24T07:40:51.586Z,102224.16
2019-03-24T07:43:23.627Z,102224.49
2019-03-24T07:45:55.647Z,102225.72
2019-03-24T07:48:27.590Z,102225.28
2019-03-24T07:50:59.552Z,102228.14
2019-03-24T07:53:31.754Z,102229.21
2019-03-24T07:56:04.070Z,102223.29
2019-03-24T07:58:36.073Z,102221.64
2019-03-24T08:01:08.187Z,102225.64
2019-03-24T08:03:40.264Z,102225.25
2019-03-24T08:06:12.347Z,102222.61
2019-03-24T08:08:44.679Z,102225.30
2019-03-24T08:11:16.870Z,102222.27
2019-03-24T08:13:53.817Z,102229.25
2019-03-24T08:16:22.722Z,102227.52
2019-03-24T08:18:54.777Z,102228.30
2019-03-24T08:21:26.764Z,102231.26
2019-03-24T08:23:58.785Z,102235.62
2019-03-24T08:26:30.835Z,102243.01
2019-03-24T08:29:02.844Z,102245.58
2019-03-24T08:31:34.952Z,102249.33
2019-03-24T08:34:07.181Z,102245.52
2019-03-24T08:36:39.168Z,102245.53
2019-03-24T08:39:11.252Z,102247.52
2019-03-24T08:41:43.455Z,102243.02
2019-03-24T08:44:15.571Z,102237.83
2019-03-24T08:46:47.691Z,102236.36
2019-03-24T08:49:19.710Z,102237.69
2019-03-24T08:51:51.849Z,102228.36
2019-03-24T08:54:23.857Z,102238.05
2019-03-24T08:56:56.008Z,102230.94
2019-03-24T08:59:28.057Z,102238.38
2019-03-24T09:02:00.149Z,102224.11
2019-03-24T09:04:32.286Z,102234.10
2019-03-24T09:07:04.350Z,102237.51
2019-03-24T09:09:36.455Z,102229.98
2019-03-24T09:12:08.536Z,102233.27
2019-03-24T09:14:40.648Z,102232.39
2019-03-24T09:17:12.718Z,102242.59
2019-03-24T09:19:44.839Z,102229.89
2019-03-24T09:22:16.910Z,102230.69
2019-03-24T09:24:49.016Z,102220.78
2019-03-24T09:27:21.075Z,102217.83
2019-03-24T09:29:53.225Z,102211.78
2019-03-24T09:32:25.391Z,102205.37
2019-03-24T09:34:57.505Z,102216.50
2019-03-24T09:37:29.557Z,102210.31
2019-03-24T09:40:01.609Z,102219.41
2019-03-24T09:42:33.669Z,102207.45
2019-03-24T09:45:06.069Z,102215.51
2019-03-24T09:47:38.172Z,102221.96
2019-03-24T09:50:10.470Z,102223.09
2019-03-24T09:52:42.507Z,102226.19
2019-03-24T09:55:14.618Z,102219.50
2019-03-24T09:57:48.853Z,102227.47
2019-03-24T10:00:20.631Z,102222.72
2019-03-24T10:02:52.761Z,102219.05
2019-03-24T10:05:24.801Z,102222.80
2019-03-24T10:07:57.030Z,102219.90
2019-03-24T10:10:29.097Z,102224.96
2019-03-24T10:13:01.285Z,102224.14
2019-03-24T10:15:33.343Z,102223.84
2019-03-24T10:18:08.557Z,102226.16
2019-03-24T10:20:40.591Z,102221.04
2019-03-24T10:23:12.670Z,102223.16
2019-03-24T10:25:45.744Z,102214.98
2019-03-24T10:28:17.803Z,102213.99
2019-03-24T10:30:50.307Z,102200.99
2019-03-24T10:33:22.406Z,102189.59
2019-03-24T10:35:59.713Z,102185.31
2019-03-24T10:38:31.834Z,102181.31
2019-03-24T10:41:04.051Z,102179.88
2019-03-24T10:43:36.113Z,102179.42
2019-03-24T10:46:08.576Z,102184.55
2019-03-24T10:48:40.819Z,102174.95
2019-03-24T10:51:13.029Z,102181.13
2019-03-24T10:53:45.304Z,102180.17
2019-03-24T10:56:17.520Z,102157.07
2019-03-24T10:58:49.617Z,102173.30
2019-03-24T11:01:21.786Z,102167.33
2019-03-24T11:03:53.874Z,102163.84
2019-03-24T11:06:26.094Z,102166.03
2019-03-24T11:08:58.216Z,102169.81
2019-03-24T11:11:30.742Z,102166.78
2019-03-24T11:14:02.883Z,102159.19
2019-03-24T11:16:34.964Z,102159.14
2019-03-24T11:19:07.435Z,102149.16
2019-03-24T11:21:39.700Z,102144.32
2019-03-24T11:24:11.868Z,102143.48
2019-03-24T11:26:44.096Z,102143.48
2019-03-24T11:29:17.150Z,102138.92
2019-03-24T11:31:49.446Z,102147.52
2019-03-24T11:34:21.769Z,102151.87
2019-03-24T11:36:54.963Z,102154.64
2019-03-24T11:39:27.236Z,102142.58
2019-03-24T11:41:59.994Z,102153.16
2019-03-24T11:44:34.720Z,102144.39
2019-03-24T11:47:06.727Z,102152.13
2019-03-24T11:49:45.916Z,102152.66
2019-03-24T11:52:13.346Z,102154.50
2019-03-24T11:54:45.582Z,102148.94
2019-03-24T11:57:18.147Z,102144.30
2019-03-24T11:59:51.000Z,102137.52
2019-03-24T12:02:23.417Z,102132.23
2019-03-24T12:04:55.578Z,102125.91
2019-03-24T12:07:28.462Z,102122.26
2019-03-24T12:10:01.166Z,102121.91
2019-03-24T12:12:33.581Z,102116.56
2019-03-24T12:15:06.601Z,102117.27
2019-03-24T12:17:39.388Z,102113.19
2019-03-24T12:20:12.082Z,102108.61
2019-03-24T12:22:47.023Z,102107.20
2019-03-24T12:25:23.297Z,102101.77
2019-03-24T12:27:56.016Z,102107.32
2019-03-24T12:30:36.613Z,102103.53
2019-03-24T12:33:09.307Z,102112.61
2019-03-24T12:35:45.443Z,102115.72
2019-03-24T12:38:20.753Z,102116.94
2019-03-24T12:40:57.510Z,102128.16
2019-03-24T12:43:30.409Z,102117.76
2019-03-24T12:46:05.519Z,102121.75
2019-03-24T12:48:39.878Z,102117.84
2019-03-24T12:51:23.596Z,102112.43
2019-03-24T12:53:59.170Z,102111.80
2019-03-24T12:56:34.233Z,102116.49
2019-03-24T12:59:09.927Z,102113.33
2019-03-24T13:01:42.180Z,102114.02
2019-03-24T13:04:14.622Z,102119.45
2019-03-24T13:06:58.538Z,102121.53
2019-03-24T13:09:33.554Z,102114.55
2019-03-24T13:12:06.732Z,102107.38
2019-03-24T13:14:43.267Z,102106.39
2019-03-24T13:17:17.113Z,102103.12
2019-03-24T13:19:52.925Z,102102.11
2019-03-24T13:22:25.170Z,102101.26
2019-03-24T13:25:00.084Z,102099.67
2019-03-24T13:27:32.438Z,102100.55
2019-03-24T13:30:07.713Z,102090.41
2019-03-24T13:32:42.150Z,102089.77
2019-03-24T13:35:24.346Z,102081.05
2019-03-24T13:38:03.278Z,102082.16
2019-03-24T13:43:55.399Z,102064.56
2019-03-24T13:46:29.012Z,102079.11
2019-03-24T13:49:02.055Z,102067.25
2019-03-24T13:51:35.134Z,102065.98
2019-03-24T13:54:07.978Z,102063.84
2019-03-24T13:56:40.457Z,102054.77
2019-03-24T13:59:12.870Z,102058.05
2019-03-24T14:01:45.339Z,102056.02
2019-03-24T14:04:17.966Z,102052.37
2019-03-24T14:06:53.875Z,102053.35
2019-03-24T14:09:26.252Z,102048.70
2019-03-24T14:11:58.767Z,102050.37
2019-03-24T14:14:31.401Z,102042.59
2019-03-24T14:17:03.716Z,102033.27
2019-03-24T14:19:35.871Z,102032.06
2019-03-24T14:22:10.821Z,102032.66
2019-03-24T14:24:43.641Z,102027.67
2019-03-24T14:27:16.634Z,102028.80
2019-03-24T14:29:49.196Z,102021.31
2019-03-24T14:32:23.531Z,102010.73
2019-03-24T14:34:56.062Z,102003.16
2019-03-24T14:37:37.344Z,102004.36
2019-03-24T14:40:10.247Z,102006.20
2019-03-24T14:42:47.857Z,101998.00
2019-03-24T14:45:31.435Z,101996.02
2019-03-24T14:48:04.223Z,101986.91
2019-03-24T14:50:37.082Z,101982.13
2019-03-24T14:53:10.939Z,101981.61
2019-03-24T14:55:44.318Z,101985.33
2019-03-24T14:58:18.718Z,101985.97
2019-03-24T15:00:51.439Z,101984.79
2019-03-24T15:03:24.025Z,101990.75
2019-03-24T15:05:56.603Z,101980.86
2019-03-24T15:08:29.695Z,101986.73
2019-03-24T15:11:02.529Z,101986.45
2019-03-24T15:13:35.416Z,101986.60
2019-03-24T15:16:09.696Z,101981.77
2019-03-24T15:18:49.218Z,101981.16
2019-03-24T15:21:26.327Z,101971.44
2019-03-24T15:23:58.501Z,101975.81
2019-03-24T15:26:30.933Z,101978.05
2019-03-24T15:29:03.115Z,101973.42
2019-03-24T15:31:35.733Z,101969.77
2019-03-24T15:34:07.893Z,101968.02
2019-03-24T15:36:40.167Z,101964.42
2019-03-24T15:39:13.467Z,101967.50
2019-03-24T15:41:45.701Z,101966.92
2019-03-24T15:44:17.866Z,101958.37
2019-03-24T15:46:50.148Z,101965.66
2019-03-24T15:49:22.398Z,101958.19
2019-03-24T15:51:54.730Z,101955.66
2019-03-24T15:54:27.345Z,101958.05
2019-03-24T15:56:59.585Z,101947.50
2019-03-24T15:59:31.880Z,101944.54
2019-03-24T16:02:04.277Z,101945.91
2019-03-24T16:04:36.725Z,101947.70
2019-03-24T16:07:08.815Z,101949.30
2019-03-24T16:09:41.009Z,101949.25
2019-03-24T16:12:13.208Z,101943.19
2019-03-24T16:14:45.607Z,101944.92
2019-03-24T16:17:17.784Z,101950.99
2019-03-24T16:19:50.132Z,101953.91
2019-03-24T16:22:22.303Z,101948.19
2019-03-24T16:24:54.777Z,101949.45
2019-03-24T16:27:26.979Z,101944.04
2019-03-24T16:29:59.261Z,101936.27
2019-03-24T16:32:31.539Z,101932.80
2019-03-24T16:35:03.710Z,101932.98
2019-03-24T16:37:36.115Z,101929.00
2019-03-24T16:40:08.564Z,101929.21
2019-03-24T16:42:41.138Z,101939.06
2019-03-24T16:45:15.510Z,101937.53
2019-03-24T16:47:47.552Z,101929.75
2019-03-24T16:50:22.418Z,101933.27
2019-03-24T16:52:54.867Z,101935.57
2019-03-24T16:55:31.248Z,101929.77
2019-03-24T16:58:05.883Z,101928.45
2019-03-24T17:00:38.710Z,101923.95
2019-03-24T17:03:11.686Z,101923.99
2019-03-24T17:05:44.958Z,101916.22
2019-03-24T17:08:18.392Z,101925.33
2019-03-24T17:11:05.091Z,101922.69
2019-03-24T17:13:27.777Z,101922.13
2019-03-24T17:16:02.473Z,101929.72
2019-03-24T17:18:36.109Z,101923.06
2019-03-24T17:21:08.667Z,101925.20
2019-03-24T17:23:43.707Z,101930.53
2019-03-24T17:26:18.295Z,101921.47
2019-03-24T17:28:50.592Z,101923.23
2019-03-24T17:31:23.060Z,101925.16
2019-03-24T17:33:57.505Z,101920.48
2019-03-24T17:36:32.037Z,101921.83
2019-03-24T17:39:07.415Z,101922.66
2019-03-24T17:41:43.207Z,101917.27
2019-03-24T17:44:20.090Z,101916.41
2019-03-24T17:46:53.771Z,101914.00
2019-03-24T17:49:34.936Z,101915.53
2019-03-24T17:52:11.111Z,101913.36
2019-03-24T17:54:44.296Z,101916.06
2019-03-24T17:57:19.663Z,101922.77
2019-03-24T18:00:02.827Z,101921.92
2019-03-24T18:02:36.800Z,101921.16
2019-03-24T18:05:18.139Z,101923.04
2019-03-24T18:07:56.619Z,101920.00
2019-03-24T18:10:31.060Z,101924.52
2019-03-24T18:13:05.902Z,101926.58
2019-03-24T18:15:42.250Z,101927.16
2019-03-24T18:18:14.511Z,101927.55
2019-03-24T18:20:48.532Z,101928.05
2019-03-24T18:23:21.954Z,101929.73
2019-03-24T18:25:54.210Z,101928.16
2019-03-24T18:28:29.448Z,101925.27
2019-03-24T18:31:01.786Z,101928.63
2019-03-24T18:33:40.984Z,101934.91
2019-03-24T18:36:13.118Z,101932.48
2019-03-24T18:38:47.976Z,101929.83
2019-03-24T18:41:20.115Z,101929.83
2019-03-24T18:43:52.202Z,101931.52
2019-03-24T18:46:24.325Z,101935.98
2019-03-24T18:48:56.424Z,101934.17
2019-03-24T18:51:28.743Z,101932.84
2019-03-24T18:54:00.866Z,101929.33
2019-03-24T18:56:32.998Z,101928.63
2019-03-24T18:59:06.547Z,101928.26
2019-03-24T19:01:38.667Z,101929.56
2019-03-24T19:04:14.483Z,101930.27
2019-03-24T19:06:46.601Z,101933.14
2019-03-24T19:09:20.512Z,101932.69
2019-03-24T19:11:52.631Z,101927.98
2019-03-24T19:14:25.078Z,101935.48
2019-03-24T19:16:57.215Z,101937.16
2019-03-24T19:19:29.451Z,101939.91
2019-03-24T19:22:04.263Z,101936.66
2019-03-24T19:24:35.564Z,101934.84
2019-03-24T19:27:07.739Z,101925.83
2019-03-24T19:29:42.605Z,101928.10
2019-03-24T19:32:15.385Z,101926.41
2019-03-24T19:34:47.884Z,101929.14
2019-03-24T19:37:20.405Z,101925.88
2019-03-24T19:39:55.695Z,101929.70
2019-03-24T19:42:27.940Z,101927.03
2019-03-24T19:45:00.314Z,101935.52
2019-03-24T19:47:33.684Z,101934.77
2019-03-24T19:50:07.243Z,101929.42
2019-03-24T19:52:44.578Z,101926.70
2019-03-24T19:55:16.097Z,101927.64
2019-03-24T19:57:48.231Z,101928.25
2019-03-24T20:00:20.323Z,101924.88
2019-03-24T20:02:52.665Z,101920.77
2019-03-24T20:05:26.864Z,101931.75
2019-03-24T20:07:59.194Z,101928.42
2019-03-24T20:10:31.504Z,101922.52
2019-03-24T20:13:03.655Z,101923.20
2019-03-24T20:15:35.908Z,101927.14
2019-03-24T20:18:08.419Z,101932.44
2019-03-24T20:20:40.776Z,101932.89
2019-03-24T20:23:21.550Z,101936.30
2019-03-24T20:25:59.784Z,101927.84
2019-03-24T20:28:32.170Z,101933.70
2019-03-24T20:31:04.489Z,101931.37
2019-03-24T20:33:39.436Z,101934.87
2019-03-24T20:36:15.828Z,101942.73
2019-03-24T20:38:57.332Z,101934.63
2019-03-24T20:41:34.754Z,101938.39
2019-03-24T20:44:07.067Z,101931.83
2019-03-24T20:46:57.964Z,101927.74
2019-03-24T20:49:34.318Z,101925.70
2019-03-24T20:52:06.592Z,101925.37
2019-03-24T20:54:40.178Z,101927.07
2019-03-24T20:57:12.381Z,101921.57
2019-03-24T20:59:44.441Z,101919.22
2019-03-24T21:02:16.625Z,101922.88
2019-03-24T21:04:48.890Z,101913.23
2019-03-24T21:07:25.634Z,101911.20
2019-03-24T21:10:01.131Z,101911.06
2019-03-24T21:12:46.440Z,101911.91
2019-03-24T21:15:18.626Z,101920.46
2019-03-24T21:17:51.110Z,101911.44
2019-03-24T21:20:23.353Z,101904.00
2019-03-24T21:22:55.806Z,101899.86
2019-03-24T21:25:28.725Z,101893.06
2019-03-24T21:28:18.204Z,101891.46
2019-03-24T21:30:50.670Z,101893.76
2019-03-24T21:33:22.862Z,101891.00
2019-03-24T21:35:56.869Z,101891.23
2019-03-24T21:38:28.980Z,101879.20
2019-03-24T21:41:01.291Z,101877.18
2019-03-24T21:43:33.470Z,101873.34
2019-03-24T21:46:05.657Z,101878.72
2019-03-24T21:48:37.823Z,101867.81
2019-03-24T21:51:09.979Z,101873.05
2019-03-24T21:53:42.107Z,101874.91
2019-03-24T21:56:14.485Z,101874.69
2019-03-24T21:58:46.790Z,101869.14
2019-03-24T22:01:22.240Z,101870.51
2019-03-24T22:03:54.239Z,101865.52
2019-03-24T22:06:26.278Z,101867.78
2019-03-24T22:08:58.423Z,101859.46
2019-03-24T22:11:30.484Z,101858.95
2019-03-24T22:14:02.720Z,101856.41
2019-03-24T22:16:34.791Z,101860.91
2019-03-24T22:19:06.934Z,101845.22
2019-03-24T22:21:39.016Z,101849.63
2019-03-24T22:24:11.199Z,101845.08
2019-03-24T22:26:47.536Z,101838.98
2019-03-24T22:29:19.626Z,101836.47
2019-03-24T22:31:51.705Z,101834.57
2019-03-24T22:34:23.689Z,101828.34
2019-03-24T22:36:55.722Z,101831.16
2019-03-24T22:39:27.821Z,101820.11
2019-03-24T22:41:59.970Z,101814.16
2019-03-24T22:44:32.102Z,101809.73
2019-03-24T22:47:04.187Z,101800.92
2019-03-24T22:49:36.330Z,101799.11
2019-03-24T22:52:08.562Z,101796.42
2019-03-24T22:54:40.584Z,101797.23
2019-03-24T22:57:13.087Z,101797.98
2019-03-24T22:59:45.302Z,101793.33
2019-03-24T23:02:26.761Z,101798.20
2019-03-24T23:04:58.708Z,101789.17
2019-03-24T23:07:30.719Z,101789.45
2019-03-24T23:10:02.762Z,101783.70
2019-03-24T23:12:34.926Z,101776.03
2019-03-24T23:15:07.864Z,101766.82
2019-03-24T23:17:40.067Z,101768.95
2019-03-24T23:20:12.146Z,101762.50
2019-03-24T23:22:44.153Z,101760.64
2019-03-24T23:25:16.298Z,101754.59
2019-03-24T23:27:48.408Z,101744.40
2019-03-24T23:30:20.749Z,101743.03
2019-03-24T23:32:52.867Z,101735.16
2019-03-24T23:35:25.034Z,101734.36
2019-03-24T23:37:57.528Z,101724.08
2019-03-24T23:40:30.527Z,101720.32
2019-03-24T23:43:02.609Z,101711.58
2019-03-24T23:45:34.751Z,101707.92
2019-03-24T23:48:08.094Z,101699.11
2019-03-24T23:50:40.188Z,101699.27
2019-03-24T23:53:12.251Z,101696.36
2019-03-24T23:55:44.475Z,101694.50
2019-03-24T23:58:16.582Z,101690.48
